sensor_id;sensor_type;location;lat;lon;timestamp;P1;durP1;ratioP1;P2;durP2;ratioP2
19193;SDS011;9729;52.296;13.260;2023-09-18T00:00:43;14.10;;;12.30;;
19193;SDS011;9729;52.296;13.260;2023-09-18T00:03:11;13.63;;;11.73;;
19193;SDS011;9729;52.296;13.260;2023-09-18T00:05:37;13.30;;;11.90;;
19193;SDS011;9729;52.296;13.260;2023-09-18T00:08:03;12.97;;;11.17;;
19193;SDS011;9729;52.296;13.260;2023-09-18T00:10:30;13.13;;;11.40;;
19193;SDS011;9729;52.296;13.260;2023-09-18T00:12:56;14.67;;;11.70;;
19193;SDS011;9729;52.296;13.260;2023-09-18T00:15:23;14.90;;;11.60;;
19193;SDS011;9729;52.296;13.260;2023-09-18T00:17:50;17.47;;;12.13;;
19193;SDS011;9729;52.296;13.260;2023-09-18T00:20:17;14.67;;;12.67;;
19193;SDS011;9729;52.296;13.260;2023-09-18T00:22:44;13.60;;;12.20;;
19193;SDS011;9729;52.296;13.260;2023-09-18T00:25:11;12.53;;;11.23;;
19193;SDS011;9729;52.296;13.260;2023-09-18T00:27:38;13.53;;;12.13;;
19193;SDS011;9729;52.296;13.260;2023-09-18T00:30:05;12.73;;;11.60;;
19193;SDS011;9729;52.296;13.260;2023-09-18T00:32:32;14.00;;;12.13;;
19193;SDS011;9729;52.296;13.260;2023-09-18T00:34:58;12.60;;;11.33;;
19193;SDS011;9729;52.296;13.260;2023-09-18T00:37:26;13.20;;;11.40;;
19193;SDS011;9729;52.296;13.260;2023-09-18T00:39:53;15.20;;;11.60;;
19193;SDS011;9729;52.296;13.260;2023-09-18T00:42:19;16.33;;;12.57;;
19193;SDS011;9729;52.296;13.260;2023-09-18T00:44:47;12.00;;;10.73;;
19193;SDS011;9729;52.296;13.260;2023-09-18T00:47:14;12.27;;;11.07;;
19193;SDS011;9729;52.296;13.260;2023-09-18T00:49:41;14.40;;;11.20;;
19193;SDS011;9729;52.296;13.260;2023-09-18T00:52:11;13.83;;;11.70;;
19193;SDS011;9729;52.296;13.260;2023-09-18T00:54:39;13.13;;;11.87;;
19193;SDS011;9729;52.296;13.260;2023-09-18T00:57:06;13.83;;;12.07;;
19193;SDS011;9729;52.296;13.260;2023-09-18T00:59:33;15.20;;;12.97;;
19193;SDS011;9729;52.296;13.260;2023-09-18T01:01:59;13.17;;;11.77;;
19193;SDS011;9729;52.296;13.260;2023-09-18T01:04:26;14.80;;;11.80;;
19193;SDS011;9729;52.296;13.260;2023-09-18T01:06:53;14.17;;;12.70;;
19193;SDS011;9729;52.296;13.260;2023-09-18T01:09:21;14.03;;;12.73;;
19193;SDS011;9729;52.296;13.260;2023-09-18T01:11:52;12.63;;;11.20;;
19193;SDS011;9729;52.296;13.260;2023-09-18T01:14:24;13.23;;;11.93;;
19193;SDS011;9729;52.296;13.260;2023-09-18T01:16:53;14.10;;;12.53;;
19193;SDS011;9729;52.296;13.260;2023-09-18T01:19:34;12.90;;;11.23;;
19193;SDS011;9729;52.296;13.260;2023-09-18T01:22:02;13.53;;;12.23;;
19193;SDS011;9729;52.296;13.260;2023-09-18T01:24:30;13.07;;;11.67;;
19193;SDS011;9729;52.296;13.260;2023-09-18T01:26:57;13.23;;;11.93;;
19193;SDS011;9729;52.296;13.260;2023-09-18T01:29:23;13.63;;;12.33;;
19193;SDS011;9729;52.296;13.260;2023-09-18T01:31:50;13.13;;;11.87;;
19193;SDS011;9729;52.296;13.260;2023-09-18T01:34:17;13.47;;;11.57;;
19193;SDS011;9729;52.296;13.260;2023-09-18T01:36:44;13.20;;;11.90;;
19193;SDS011;9729;52.296;13.260;2023-09-18T01:39:11;14.30;;;12.73;;
19193;SDS011;9729;52.296;13.260;2023-09-18T01:41:39;13.43;;;12.17;;
19193;SDS011;9729;52.296;13.260;2023-09-18T01:44:06;12.73;;;11.53;;
19193;SDS011;9729;52.296;13.260;2023-09-18T01:46:32;14.77;;;11.87;;
19193;SDS011;9729;52.296;13.260;2023-09-18T01:49:01;13.87;;;12.37;;
19193;SDS011;9729;52.296;13.260;2023-09-18T01:51:28;14.80;;;13.33;;
19193;SDS011;9729;52.296;13.260;2023-09-18T01:53:55;18.17;;;13.83;;
19193;SDS011;9729;52.296;13.260;2023-09-18T01:56:21;15.10;;;13.17;;
19193;SDS011;9729;52.296;13.260;2023-09-18T01:58:49;14.00;;;12.60;;
19193;SDS011;9729;52.296;13.260;2023-09-18T02:01:15;16.97;;;13.50;;
19193;SDS011;9729;52.296;13.260;2023-09-18T02:03:42;14.90;;;13.10;;
19193;SDS011;9729;52.296;13.260;2023-09-18T02:06:08;14.00;;;12.53;;
19193;SDS011;9729;52.296;13.260;2023-09-18T02:08:34;20.40;;;12.73;;
19193;SDS011;9729;52.296;13.260;2023-09-18T02:11:01;15.87;;;13.30;;
19193;SDS011;9729;52.296;13.260;2023-09-18T02:13:28;16.20;;;14.60;;
19193;SDS011;9729;52.296;13.260;2023-09-18T02:15:55;15.00;;;13.50;;
19193;SDS011;9729;52.296;13.260;2023-09-18T02:18:22;14.33;;;12.93;;
19193;SDS011;9729;52.296;13.260;2023-09-18T02:20:48;19.43;;;14.33;;
19193;SDS011;9729;52.296;13.260;2023-09-18T02:23:15;16.53;;;13.63;;
19193;SDS011;9729;52.296;13.260;2023-09-18T02:25:41;14.63;;;13.13;;
19193;SDS011;9729;52.296;13.260;2023-09-18T02:28:07;15.17;;;12.23;;
19193;SDS011;9729;52.296;13.260;2023-09-18T02:30:34;15.57;;;13.97;;
19193;SDS011;9729;52.296;13.260;2023-09-18T02:33:01;15.37;;;13.13;;
19193;SDS011;9729;52.296;13.260;2023-09-18T02:35:28;15.30;;;13.70;;
19193;SDS011;9729;52.296;13.260;2023-09-18T02:37:55;19.13;;;14.07;;
19193;SDS011;9729;52.296;13.260;2023-09-18T02:40:21;15.07;;;13.60;;
19193;SDS011;9729;52.296;13.260;2023-09-18T02:42:48;15.27;;;13.70;;
19193;SDS011;9729;52.296;13.260;2023-09-18T02:45:14;14.97;;;13.27;;
19193;SDS011;9729;52.296;13.260;2023-09-18T02:47:41;15.97;;;13.47;;
19193;SDS011;9729;52.296;13.260;2023-09-18T02:50:09;15.17;;;12.67;;
19193;SDS011;9729;52.296;13.260;2023-09-18T02:52:36;16.00;;;13.17;;
19193;SDS011;9729;52.296;13.260;2023-09-18T02:55:03;15.00;;;13.50;;
19193;SDS011;9729;52.296;13.260;2023-09-18T02:57:30;20.50;;;13.03;;
19193;SDS011;9729;52.296;13.260;2023-09-18T02:59:56;18.23;;;13.57;;
19193;SDS011;9729;52.296;13.260;2023-09-18T03:02:23;16.07;;;14.37;;
19193;SDS011;9729;52.296;13.260;2023-09-18T03:04:50;15.20;;;13.67;;
19193;SDS011;9729;52.296;13.260;2023-09-18T03:07:17;18.47;;;14.13;;
19193;SDS011;9729;52.296;13.260;2023-09-18T03:09:44;14.93;;;13.43;;
19193;SDS011;9729;52.296;13.260;2023-09-18T03:12:10;20.20;;;13.63;;
19193;SDS011;9729;52.296;13.260;2023-09-18T03:14:36;16.50;;;14.20;;
19193;SDS011;9729;52.296;13.260;2023-09-18T03:17:03;14.47;;;12.97;;
19193;SDS011;9729;52.296;13.260;2023-09-18T03:19:29;16.60;;;14.60;;
19193;SDS011;9729;52.296;13.260;2023-09-18T03:21:55;14.77;;;13.20;;
19193;SDS011;9729;52.296;13.260;2023-09-18T03:24:23;15.70;;;14.10;;
19193;SDS011;9729;52.296;13.260;2023-09-18T03:26:49;15.20;;;13.60;;
19193;SDS011;9729;52.296;13.260;2023-09-18T03:29:16;14.60;;;13.10;;
19193;SDS011;9729;52.296;13.260;2023-09-18T03:31:42;19.40;;;13.67;;
19193;SDS011;9729;52.296;13.260;2023-09-18T03:34:08;18.00;;;13.23;;
19193;SDS011;9729;52.296;13.260;2023-09-18T03:36:35;14.57;;;13.07;;
19193;SDS011;9729;52.296;13.260;2023-09-18T03:39:02;15.80;;;12.93;;
19193;SDS011;9729;52.296;13.260;2023-09-18T03:41:30;14.87;;;13.43;;
19193;SDS011;9729;52.296;13.260;2023-09-18T03:43:59;14.17;;;12.87;;
19193;SDS011;9729;52.296;13.260;2023-09-18T03:46:25;15.57;;;14.07;;
19193;SDS011;9729;52.296;13.260;2023-09-18T03:48:51;15.33;;;13.83;;
19193;SDS011;9729;52.296;13.260;2023-09-18T03:51:18;14.80;;;13.30;;
19193;SDS011;9729;52.296;13.260;2023-09-18T03:53:45;14.63;;;13.00;;
19193;SDS011;9729;52.296;13.260;2023-09-18T03:56:13;16.70;;;13.37;;
19193;SDS011;9729;52.296;13.260;2023-09-18T03:58:40;14.47;;;12.97;;
19193;SDS011;9729;52.296;13.260;2023-09-18T04:01:07;14.53;;;13.13;;
19193;SDS011;9729;52.296;13.260;2023-09-18T04:03:33;14.13;;;12.67;;
19193;SDS011;9729;52.296;13.260;2023-09-18T04:05:59;14.63;;;13.07;;
19193;SDS011;9729;52.296;13.260;2023-09-18T04:08:26;15.53;;;13.20;;
19193;SDS011;9729;52.296;13.260;2023-09-18T04:10:52;15.80;;;13.00;;
19193;SDS011;9729;52.296;13.260;2023-09-18T04:13:20;16.03;;;14.40;;
19193;SDS011;9729;52.296;13.260;2023-09-18T04:15:48;18.83;;;13.67;;
19193;SDS011;9729;52.296;13.260;2023-09-18T04:18:14;14.60;;;12.70;;
19193;SDS011;9729;52.296;13.260;2023-09-18T04:20:41;14.67;;;13.10;;
19193;SDS011;9729;52.296;13.260;2023-09-18T04:23:17;16.40;;;14.13;;
19193;SDS011;9729;52.296;13.260;2023-09-18T04:25:45;15.17;;;12.90;;
19193;SDS011;9729;52.296;13.260;2023-09-18T04:28:11;18.67;;;14.37;;
19193;SDS011;9729;52.296;13.260;2023-09-18T04:30:38;14.53;;;13.07;;
19193;SDS011;9729;52.296;13.260;2023-09-18T04:33:06;17.53;;;13.20;;
19193;SDS011;9729;52.296;13.260;2023-09-18T04:35:32;15.37;;;13.80;;
19193;SDS011;9729;52.296;13.260;2023-09-18T04:37:59;17.03;;;13.20;;
19193;SDS011;9729;52.296;13.260;2023-09-18T04:40:25;15.23;;;13.77;;
19193;SDS011;9729;52.296;13.260;2023-09-18T04:42:56;18.13;;;14.60;;
19193;SDS011;9729;52.296;13.260;2023-09-18T04:45:23;16.23;;;14.40;;
19193;SDS011;9729;52.296;13.260;2023-09-18T04:47:49;15.83;;;14.23;;
19193;SDS011;9729;52.296;13.260;2023-09-18T04:50:17;16.60;;;14.40;;
19193;SDS011;9729;52.296;13.260;2023-09-18T04:52:43;18.17;;;14.77;;
19193;SDS011;9729;52.296;13.260;2023-09-18T04:55:10;20.30;;;15.23;;
19193;SDS011;9729;52.296;13.260;2023-09-18T04:57:37;16.73;;;13.63;;
19193;SDS011;9729;52.296;13.260;2023-09-18T05:00:04;15.80;;;14.13;;
19193;SDS011;9729;52.296;13.260;2023-09-18T05:02:33;17.13;;;14.43;;
19193;SDS011;9729;52.296;13.260;2023-09-18T05:04:59;16.47;;;14.83;;
19193;SDS011;9729;52.296;13.260;2023-09-18T05:07:27;16.63;;;14.90;;
19193;SDS011;9729;52.296;13.260;2023-09-18T05:09:53;18.23;;;14.60;;
19193;SDS011;9729;52.296;13.260;2023-09-18T05:12:20;17.90;;;15.50;;
19193;SDS011;9729;52.296;13.260;2023-09-18T05:14:47;20.23;;;16.20;;
19193;SDS011;9729;52.296;13.260;2023-09-18T05:17:14;21.37;;;15.47;;
19193;SDS011;9729;52.296;13.260;2023-09-18T05:19:41;19.33;;;15.30;;
19193;SDS011;9729;52.296;13.260;2023-09-18T05:22:07;20.03;;;14.87;;
19193;SDS011;9729;52.296;13.260;2023-09-18T05:24:36;16.90;;;15.10;;
19193;SDS011;9729;52.296;13.260;2023-09-18T05:27:03;16.33;;;14.60;;
19193;SDS011;9729;52.296;13.260;2023-09-18T05:29:31;18.77;;;14.40;;
19193;SDS011;9729;52.296;13.260;2023-09-18T05:31:57;17.03;;;14.93;;
19193;SDS011;9729;52.296;13.260;2023-09-18T05:34:24;17.13;;;14.57;;
19193;SDS011;9729;52.296;13.260;2023-09-18T05:36:50;17.07;;;13.90;;
19193;SDS011;9729;52.296;13.260;2023-09-18T05:39:17;15.77;;;14.07;;
19193;SDS011;9729;52.296;13.260;2023-09-18T05:41:44;16.63;;;14.90;;
19193;SDS011;9729;52.296;13.260;2023-09-18T05:44:11;16.63;;;13.57;;
19193;SDS011;9729;52.296;13.260;2023-09-18T05:46:37;19.63;;;12.97;;
19193;SDS011;9729;52.296;13.260;2023-09-18T05:49:03;18.23;;;13.37;;
19193;SDS011;9729;52.296;13.260;2023-09-18T05:51:30;18.83;;;13.90;;
19193;SDS011;9729;52.296;13.260;2023-09-18T05:53:57;16.73;;;12.70;;
19193;SDS011;9729;52.296;13.260;2023-09-18T05:56:24;16.47;;;14.33;;
19193;SDS011;9729;52.296;13.260;2023-09-18T05:58:51;14.13;;;12.07;;
19193;SDS011;9729;52.296;13.260;2023-09-18T06:01:20;14.07;;;12.50;;
19193;SDS011;9729;52.296;13.260;2023-09-18T06:03:46;16.43;;;12.30;;
19193;SDS011;9729;52.296;13.260;2023-09-18T06:06:12;13.50;;;12.20;;
19193;SDS011;9729;52.296;13.260;2023-09-18T06:08:39;13.30;;;12.00;;
19193;SDS011;9729;52.296;13.260;2023-09-18T06:11:05;16.13;;;13.10;;
19193;SDS011;9729;52.296;13.260;2023-09-18T06:13:31;19.80;;;13.90;;
19193;SDS011;9729;52.296;13.260;2023-09-18T06:16:00;20.87;;;12.50;;
19193;SDS011;9729;52.296;13.260;2023-09-18T06:18:32;13.20;;;11.83;;
19193;SDS011;9729;52.296;13.260;2023-09-18T06:20:58;13.10;;;11.80;;
19193;SDS011;9729;52.296;13.260;2023-09-18T06:23:25;12.07;;;10.87;;
19193;SDS011;9729;52.296;13.260;2023-09-18T06:25:51;19.13;;;11.87;;
19193;SDS011;9729;52.296;13.260;2023-09-18T06:28:21;15.90;;;12.30;;
19193;SDS011;9729;52.296;13.260;2023-09-18T06:30:47;18.17;;;11.70;;
19193;SDS011;9729;52.296;13.260;2023-09-18T06:33:15;13.60;;;11.27;;
19193;SDS011;9729;52.296;13.260;2023-09-18T06:35:41;12.00;;;10.23;;
19193;SDS011;9729;52.296;13.260;2023-09-18T06:38:08;20.10;;;10.60;;
19193;SDS011;9729;52.296;13.260;2023-09-18T06:40:37;13.60;;;10.77;;
19193;SDS011;9729;52.296;13.260;2023-09-18T06:43:04;14.17;;;10.27;;
19193;SDS011;9729;52.296;13.260;2023-09-18T06:45:30;11.80;;;10.03;;
19193;SDS011;9729;52.296;13.260;2023-09-18T06:47:58;10.77;;;9.63;;
19193;SDS011;9729;52.296;13.260;2023-09-18T06:50:26;11.43;;;10.33;;
19193;SDS011;9729;52.296;13.260;2023-09-18T06:52:52;14.20;;;9.73;;
19193;SDS011;9729;52.296;13.260;2023-09-18T06:55:19;9.33;;;8.53;;
19193;SDS011;9729;52.296;13.260;2023-09-18T06:57:45;9.67;;;8.67;;
19193;SDS011;9729;52.296;13.260;2023-09-18T07:00:12;9.50;;;8.70;;
19193;SDS011;9729;52.296;13.260;2023-09-18T07:02:43;12.60;;;9.43;;
19193;SDS011;9729;52.296;13.260;2023-09-18T07:05:10;10.27;;;9.17;;
19193;SDS011;9729;52.296;13.260;2023-09-18T07:07:37;12.50;;;9.37;;
19193;SDS011;9729;52.296;13.260;2023-09-18T07:10:04;9.50;;;8.53;;
19193;SDS011;9729;52.296;13.260;2023-09-18T07:12:30;9.87;;;8.87;;
19193;SDS011;9729;52.296;13.260;2023-09-18T07:14:58;11.43;;;9.43;;
19193;SDS011;9729;52.296;13.260;2023-09-18T07:17:24;12.83;;;9.60;;
19193;SDS011;9729;52.296;13.260;2023-09-18T07:19:50;9.77;;;8.80;;
19193;SDS011;9729;52.296;13.260;2023-09-18T07:22:17;9.40;;;8.50;;
19193;SDS011;9729;52.296;13.260;2023-09-18T07:24:45;10.03;;;9.03;;
19193;SDS011;9729;52.296;13.260;2023-09-18T07:27:11;9.00;;;7.97;;
19193;SDS011;9729;52.296;13.260;2023-09-18T07:29:38;12.60;;;9.30;;
19193;SDS011;9729;52.296;13.260;2023-09-18T07:32:04;13.40;;;9.23;;
19193;SDS011;9729;52.296;13.260;2023-09-18T07:34:31;9.13;;;8.20;;
19193;SDS011;9729;52.296;13.260;2023-09-18T07:36:57;10.47;;;8.30;;
19193;SDS011;9729;52.296;13.260;2023-09-18T07:39:24;10.07;;;8.47;;
19193;SDS011;9729;52.296;13.260;2023-09-18T07:41:52;10.10;;;8.50;;
19193;SDS011;9729;52.296;13.260;2023-09-18T07:44:18;12.80;;;8.93;;
19193;SDS011;9729;52.296;13.260;2023-09-18T07:46:45;8.37;;;7.67;;
19193;SDS011;9729;52.296;13.260;2023-09-18T07:49:11;11.97;;;8.47;;
19193;SDS011;9729;52.296;13.260;2023-09-18T07:51:38;10.87;;;9.03;;
19193;SDS011;9729;52.296;13.260;2023-09-18T07:54:04;11.20;;;8.03;;
19193;SDS011;9729;52.296;13.260;2023-09-18T07:56:30;9.60;;;8.13;;
19193;SDS011;9729;52.296;13.260;2023-09-18T07:59:00;10.43;;;8.97;;
19193;SDS011;9729;52.296;13.260;2023-09-18T08:01:27;8.00;;;7.30;;
19193;SDS011;9729;52.296;13.260;2023-09-18T08:03:56;9.90;;;8.37;;
19193;SDS011;9729;52.296;13.260;2023-09-18T08:06:24;8.37;;;7.40;;
19193;SDS011;9729;52.296;13.260;2023-09-18T08:08:51;8.93;;;8.03;;
19193;SDS011;9729;52.296;13.260;2023-09-18T08:11:18;11.77;;;7.63;;
19193;SDS011;9729;52.296;13.260;2023-09-18T08:13:44;11.67;;;7.77;;
19193;SDS011;9729;52.296;13.260;2023-09-18T08:16:12;8.33;;;7.60;;
19193;SDS011;9729;52.296;13.260;2023-09-18T08:18:39;9.63;;;8.30;;
19193;SDS011;9729;52.296;13.260;2023-09-18T08:21:06;9.67;;;7.60;;
19193;SDS011;9729;52.296;13.260;2023-09-18T08:23:34;8.77;;;7.87;;
19193;SDS011;9729;52.296;13.260;2023-09-18T08:26:01;10.47;;;7.93;;
19193;SDS011;9729;52.296;13.260;2023-09-18T08:28:28;8.20;;;7.50;;
19193;SDS011;9729;52.296;13.260;2023-09-18T08:30:55;10.00;;;8.00;;
19193;SDS011;9729;52.296;13.260;2023-09-18T08:33:25;9.70;;;7.57;;
19193;SDS011;9729;52.296;13.260;2023-09-18T08:35:51;9.30;;;7.53;;
19193;SDS011;9729;52.296;13.260;2023-09-18T08:38:18;8.67;;;7.93;;
19193;SDS011;9729;52.296;13.260;2023-09-18T08:40:44;9.33;;;7.80;;
19193;SDS011;9729;52.296;13.260;2023-09-18T08:43:11;8.13;;;7.37;;
19193;SDS011;9729;52.296;13.260;2023-09-18T08:45:40;8.53;;;7.43;;
19193;SDS011;9729;52.296;13.260;2023-09-18T08:48:11;9.47;;;7.20;;
19193;SDS011;9729;52.296;13.260;2023-09-18T08:50:39;8.13;;;6.60;;
19193;SDS011;9729;52.296;13.260;2023-09-18T08:53:06;9.95;;;6.43;;
19193;SDS011;9729;52.296;13.260;2023-09-18T08:55:32;8.57;;;6.70;;
19193;SDS011;9729;52.296;13.260;2023-09-18T08:57:59;7.38;;;6.78;;
19193;SDS011;9729;52.296;13.260;2023-09-18T09:00:26;7.15;;;6.45;;
19193;SDS011;9729;52.296;13.260;2023-09-18T09:02:52;9.30;;;6.38;;
19193;SDS011;9729;52.296;13.260;2023-09-18T09:05:19;7.85;;;7.13;;
19193;SDS011;9729;52.296;13.260;2023-09-18T09:07:47;7.53;;;6.55;;
19193;SDS011;9729;52.296;13.260;2023-09-18T09:10:14;7.30;;;6.60;;
19193;SDS011;9729;52.296;13.260;2023-09-18T09:12:47;6.65;;;6.03;;
19193;SDS011;9729;52.296;13.260;2023-09-18T09:15:15;6.60;;;5.88;;
19193;SDS011;9729;52.296;13.260;2023-09-18T09:17:42;9.65;;;6.65;;
19193;SDS011;9729;52.296;13.260;2023-09-18T09:20:09;7.70;;;6.78;;
19193;SDS011;9729;52.296;13.260;2023-09-18T09:22:37;8.70;;;6.72;;
19193;SDS011;9729;52.296;13.260;2023-09-18T09:25:07;8.02;;;6.82;;
19193;SDS011;9729;52.296;13.260;2023-09-18T09:27:47;7.82;;;7.13;;
19193;SDS011;9729;52.296;13.260;2023-09-18T09:30:16;6.78;;;6.18;;
19193;SDS011;9729;52.296;13.260;2023-09-18T09:32:47;8.20;;;7.40;;
19193;SDS011;9729;52.296;13.260;2023-09-18T09:35:18;8.25;;;7.45;;
19193;SDS011;9729;52.296;13.260;2023-09-18T09:37:46;7.28;;;6.57;;
19193;SDS011;9729;52.296;13.260;2023-09-18T09:40:14;8.35;;;7.50;;
19193;SDS011;9729;52.296;13.260;2023-09-18T09:42:40;7.78;;;6.97;;
19193;SDS011;9729;52.296;13.260;2023-09-18T09:45:10;7.53;;;6.95;;
19193;SDS011;9729;52.296;13.260;2023-09-18T09:47:37;7.65;;;6.97;;
19193;SDS011;9729;52.296;13.260;2023-09-18T09:50:07;7.60;;;7.00;;
19193;SDS011;9729;52.296;13.260;2023-09-18T09:52:35;10.52;;;7.00;;
19193;SDS011;9729;52.296;13.260;2023-09-18T09:55:02;8.32;;;7.28;;
19193;SDS011;9729;52.296;13.260;2023-09-18T09:57:31;7.97;;;7.00;;
19193;SDS011;9729;52.296;13.260;2023-09-18T10:00:13;8.32;;;7.57;;
19193;SDS011;9729;52.296;13.260;2023-09-18T10:02:51;7.72;;;7.00;;
19193;SDS011;9729;52.296;13.260;2023-09-18T10:05:20;8.05;;;6.97;;
19193;SDS011;9729;52.296;13.260;2023-09-18T10:07:47;8.35;;;7.03;;
19193;SDS011;9729;52.296;13.260;2023-09-18T10:10:13;7.63;;;6.93;;
19193;SDS011;9729;52.296;13.260;2023-09-18T10:12:41;9.95;;;6.65;;
19193;SDS011;9729;52.296;13.260;2023-09-18T10:15:08;7.18;;;6.50;;
19193;SDS011;9729;52.296;13.260;2023-09-18T10:17:36;6.85;;;6.25;;
19193;SDS011;9729;52.296;13.260;2023-09-18T10:20:05;7.13;;;6.47;;
19193;SDS011;9729;52.296;13.260;2023-09-18T10:22:37;9.23;;;7.97;;
19193;SDS011;9729;52.296;13.260;2023-09-18T10:25:07;15.65;;;6.78;;
19193;SDS011;9729;52.296;13.260;2023-09-18T10:27:38;8.38;;;6.63;;
19193;SDS011;9729;52.296;13.260;2023-09-18T10:30:07;7.57;;;6.82;;
19193;SDS011;9729;52.296;13.260;2023-09-18T10:32:36;9.85;;;6.15;;
19193;SDS011;9729;52.296;13.260;2023-09-18T10:35:04;6.32;;;5.72;;
19193;SDS011;9729;52.296;13.260;2023-09-18T10:37:32;10.70;;;5.85;;
19193;SDS011;9729;52.296;13.260;2023-09-18T10:39:59;7.40;;;6.40;;
19193;SDS011;9729;52.296;13.260;2023-09-18T10:42:26;7.60;;;6.78;;
19193;SDS011;9729;52.296;13.260;2023-09-18T10:44:56;6.55;;;5.85;;
19193;SDS011;9729;52.296;13.260;2023-09-18T10:47:23;8.82;;;6.60;;
19193;SDS011;9729;52.296;13.260;2023-09-18T10:49:49;9.52;;;6.28;;
19193;SDS011;9729;52.296;13.260;2023-09-18T10:52:16;6.82;;;6.25;;
19193;SDS011;9729;52.296;13.260;2023-09-18T10:54:43;6.35;;;5.72;;
19193;SDS011;9729;52.296;13.260;2023-09-18T10:57:10;10.70;;;6.22;;
19193;SDS011;9729;52.296;13.260;2023-09-18T10:59:42;7.75;;;6.20;;
19193;SDS011;9729;52.296;13.260;2023-09-18T11:02:13;7.10;;;6.18;;
19193;SDS011;9729;52.296;13.260;2023-09-18T11:04:40;6.68;;;6.05;;
19193;SDS011;9729;52.296;13.260;2023-09-18T11:07:07;9.77;;;6.10;;
19193;SDS011;9729;52.296;13.260;2023-09-18T11:09:41;7.32;;;6.55;;
19193;SDS011;9729;52.296;13.260;2023-09-18T11:12:09;7.22;;;6.30;;
19193;SDS011;9729;52.296;13.260;2023-09-18T11:14:43;6.55;;;6.03;;
19193;SDS011;9729;52.296;13.260;2023-09-18T11:17:28;6.13;;;5.53;;
19193;SDS011;9729;52.296;13.260;2023-09-18T11:20:01;13.68;;;5.97;;
19193;SDS011;9729;52.296;13.260;2023-09-18T11:22:34;6.32;;;5.72;;
19193;SDS011;9729;52.296;13.260;2023-09-18T11:27:56;8.55;;;5.35;;
19193;SDS011;9729;52.296;13.260;2023-09-18T11:30:22;8.93;;;5.32;;
19193;SDS011;9729;52.296;13.260;2023-09-18T11:32:50;6.13;;;5.50;;
19193;SDS011;9729;52.296;13.260;2023-09-18T11:35:17;6.22;;;5.38;;
19193;SDS011;9729;52.296;13.260;2023-09-18T11:37:44;10.18;;;6.00;;
19193;SDS011;9729;52.296;13.260;2023-09-18T11:45:55;6.70;;;6.00;;
19193;SDS011;9729;52.296;13.260;2023-09-18T11:48:24;6.82;;;5.88;;
19193;SDS011;9729;52.296;13.260;2023-09-18T11:50:53;7.63;;;6.03;;
19193;SDS011;9729;52.296;13.260;2023-09-18T11:53:19;7.55;;;5.30;;
19193;SDS011;9729;52.296;13.260;2023-09-18T11:55:46;8.50;;;6.32;;
19193;SDS011;9729;52.296;13.260;2023-09-18T11:58:13;7.28;;;6.68;;
19193;SDS011;9729;52.296;13.260;2023-09-18T12:00:40;7.78;;;5.70;;
19193;SDS011;9729;52.296;13.260;2023-09-18T12:03:18;6.75;;;5.80;;
19193;SDS011;9729;52.296;13.260;2023-09-18T12:05:53;7.80;;;6.32;;
19193;SDS011;9729;52.296;13.260;2023-09-18T12:08:21;6.72;;;6.13;;
19193;SDS011;9729;52.296;13.260;2023-09-18T12:10:49;6.38;;;5.88;;
19193;SDS011;9729;52.296;13.260;2023-09-18T12:13:15;6.93;;;5.78;;
19193;SDS011;9729;52.296;13.260;2023-09-18T12:15:42;6.80;;;6.00;;
19193;SDS011;9729;52.296;13.260;2023-09-18T12:18:09;12.05;;;6.65;;
19193;SDS011;9729;52.296;13.260;2023-09-18T12:20:37;13.63;;;6.43;;
19193;SDS011;9729;52.296;13.260;2023-09-18T12:23:04;6.72;;;5.90;;
19193;SDS011;9729;52.296;13.260;2023-09-18T12:25:33;8.70;;;6.43;;
19193;SDS011;9729;52.296;13.260;2023-09-18T12:27:59;6.80;;;5.80;;
19193;SDS011;9729;52.296;13.260;2023-09-18T12:30:29;9.00;;;7.00;;
19193;SDS011;9729;52.296;13.260;2023-09-18T12:32:57;6.80;;;6.20;;
19193;SDS011;9729;52.296;13.260;2023-09-18T12:35:25;8.93;;;6.63;;
19193;SDS011;9729;52.296;13.260;2023-09-18T12:37:54;7.55;;;6.60;;
19193;SDS011;9729;52.296;13.260;2023-09-18T12:40:26;7.47;;;6.30;;
19193;SDS011;9729;52.296;13.260;2023-09-18T12:42:54;20.10;;;7.10;;
19193;SDS011;9729;52.296;13.260;2023-09-18T12:45:20;11.65;;;6.00;;
19193;SDS011;9729;52.296;13.260;2023-09-18T12:47:47;8.63;;;5.95;;
19193;SDS011;9729;52.296;13.260;2023-09-18T12:50:13;10.95;;;6.10;;
19193;SDS011;9729;52.296;13.260;2023-09-18T12:52:40;8.57;;;5.85;;
19193;SDS011;9729;52.296;13.260;2023-09-18T12:55:07;8.48;;;6.38;;
19193;SDS011;9729;52.296;13.260;2023-09-18T12:57:35;9.95;;;6.50;;
19193;SDS011;9729;52.296;13.260;2023-09-18T13:00:07;6.70;;;6.00;;
19193;SDS011;9729;52.296;13.260;2023-09-18T13:02:37;16.23;;;6.13;;
19193;SDS011;9729;52.296;13.260;2023-09-18T13:05:04;8.70;;;6.25;;
19193;SDS011;9729;52.296;13.260;2023-09-18T13:07:32;6.57;;;5.68;;
19193;SDS011;9729;52.296;13.260;2023-09-18T13:10:09;6.07;;;5.47;;
19193;SDS011;9729;52.296;13.260;2023-09-18T13:12:40;11.25;;;5.78;;
19193;SDS011;9729;52.296;13.260;2023-09-18T13:15:08;10.02;;;6.47;;
19193;SDS011;9729;52.296;13.260;2023-09-18T13:17:37;10.68;;;5.88;;
19193;SDS011;9729;52.296;13.260;2023-09-18T13:20:11;11.30;;;5.93;;
19193;SDS011;9729;52.296;13.260;2023-09-18T13:22:39;11.27;;;5.90;;
19193;SDS011;9729;52.296;13.260;2023-09-18T13:25:06;8.10;;;6.07;;
19193;SDS011;9729;52.296;13.260;2023-09-18T13:27:33;6.80;;;5.70;;
19193;SDS011;9729;52.296;13.260;2023-09-18T13:30:01;5.97;;;5.35;;
19193;SDS011;9729;52.296;13.260;2023-09-18T13:32:32;23.75;;;6.88;;
19193;SDS011;9729;52.296;13.260;2023-09-18T13:34:59;9.35;;;6.05;;
19193;SDS011;9729;52.296;13.260;2023-09-18T13:37:25;9.45;;;6.43;;
19193;SDS011;9729;52.296;13.260;2023-09-18T13:39:54;12.65;;;7.05;;
19193;SDS011;9729;52.296;13.260;2023-09-18T13:42:20;8.88;;;6.22;;
19193;SDS011;9729;52.296;13.260;2023-09-18T13:44:46;7.85;;;5.63;;
19193;SDS011;9729;52.296;13.260;2023-09-18T13:47:15;12.10;;;5.82;;
19193;SDS011;9729;52.296;13.260;2023-09-18T13:49:41;10.88;;;5.75;;
19193;SDS011;9729;52.296;13.260;2023-09-18T13:52:08;14.70;;;5.85;;
19193;SDS011;9729;52.296;13.260;2023-09-18T13:54:34;8.40;;;4.68;;
19193;SDS011;9729;52.296;13.260;2023-09-18T13:57:00;10.57;;;5.13;;
19193;SDS011;9729;52.296;13.260;2023-09-18T13:59:29;12.43;;;5.10;;
19193;SDS011;9729;52.296;13.260;2023-09-18T14:01:56;11.63;;;5.13;;
19193;SDS011;9729;52.296;13.260;2023-09-18T14:04:23;11.85;;;4.78;;
19193;SDS011;9729;52.296;13.260;2023-09-18T14:06:51;10.55;;;5.07;;
19193;SDS011;9729;52.296;13.260;2023-09-18T14:09:18;9.82;;;4.97;;
19193;SDS011;9729;52.296;13.260;2023-09-18T14:11:44;11.75;;;5.22;;
19193;SDS011;9729;52.296;13.260;2023-09-18T14:14:11;8.20;;;5.30;;
19193;SDS011;9729;52.296;13.260;2023-09-18T14:16:37;13.38;;;5.30;;
19193;SDS011;9729;52.296;13.260;2023-09-18T14:19:04;6.60;;;4.90;;
19193;SDS011;9729;52.296;13.260;2023-09-18T14:21:31;8.05;;;5.03;;
19193;SDS011;9729;52.296;13.260;2023-09-18T14:23:58;12.05;;;5.38;;
19193;SDS011;9729;52.296;13.260;2023-09-18T14:26:25;7.80;;;4.95;;
19193;SDS011;9729;52.296;13.260;2023-09-18T14:28:51;6.78;;;4.72;;
19193;SDS011;9729;52.296;13.260;2023-09-18T14:31:19;6.50;;;4.85;;
19193;SDS011;9729;52.296;13.260;2023-09-18T14:33:45;15.60;;;4.28;;
19193;SDS011;9729;52.296;13.260;2023-09-18T14:36:12;7.90;;;4.50;;
19193;SDS011;9729;52.296;13.260;2023-09-18T14:38:40;6.78;;;4.20;;
19193;SDS011;9729;52.296;13.260;2023-09-18T14:41:06;7.40;;;4.43;;
19193;SDS011;9729;52.296;13.260;2023-09-18T14:43:32;7.28;;;4.53;;